Aviation Digital Data Service (ADDS)

Output produced by METARs form (0340 UTC 26 June 2019)
found at http://www.aviationweather.gov/metar/data/
 
METAR text: SOCA 260330Z AUTO 33002KT 9999 FEW039/// SCT190/// ///CB 25/24 Q1013 TEMPO 3000 SHRA
Conditions at: SOCA (CAYENNE/ROCHAMBE, GY) observed 0330 UTC 26 June 2019
Temperature: 25.0°C (77°F)
Dewpoint: 24.0°C (75°F) [RH = 94%]
Pressure (altimeter): 29.91 inches Hg (1013.0 mb)
Winds: from the NNW (330 degrees) at 2 MPH (2 knots; 1.0 m/s)
Visibility: 6 or more miles (10+ km)
Ceiling: at least 12,000 feet AGL
Clouds: few clouds at 3900 feet AGL
scattered clouds at 19000 feet AGL
Weather: no significant weather observed at this time

METAR text: SOCA 260300Z AUTO 00000KT 9999 SCT004/// BKN037/// BKN150/// ///CB 25/24 Q1013 TEMPO 3000 SHRA
Conditions at: SOCA (CAYENNE/ROCHAMBE, GY) observed 0300 UTC 26 June 2019
Temperature: 25.0°C (77°F)
Dewpoint: 24.0°C (75°F) [RH = 94%]
Pressure (altimeter): 29.91 inches Hg (1013.0 mb)
Winds: calm
Visibility: 6 or more miles (10+ km)
Ceiling: 3700 feet AGL
Clouds: scattered clouds at 400 feet AGL
broken clouds at 3700 feet AGL
broken clouds at 15000 feet AGL
Weather: no significant weather observed at this time

METAR text: SOCA 260230Z AUTO 00000KT 9999 BKN017/// BKN026/// BKN039/// ///CB 25/24 Q1013 TEMPO 3000 SHRA
Conditions at: SOCA (CAYENNE/ROCHAMBE, GY) observed 0230 UTC 26 June 2019
Temperature: 25.0°C (77°F)
Dewpoint: 24.0°C (75°F) [RH = 94%]
Pressure (altimeter): 29.91 inches Hg (1013.0 mb)
Winds: calm
Visibility: 6 or more miles (10+ km)
Ceiling: 1700 feet AGL
Clouds: broken clouds at 1700 feet AGL
broken clouds at 2600 feet AGL
broken clouds at 3900 feet AGL
Weather: no significant weather observed at this time

METAR text: SOCA 260200Z AUTO 00000KT 9999 FEW023/// SCT039/// BKN047/// ///CB 25/24 Q1013 TEMPO 3000 SHRA
Conditions at: SOCA (CAYENNE/ROCHAMBE, GY) observed 0200 UTC 26 June 2019
Temperature: 25.0°C (77°F)
Dewpoint: 24.0°C (75°F) [RH = 94%]
Pressure (altimeter): 29.91 inches Hg (1013.0 mb)
Winds: calm
Visibility: 6 or more miles (10+ km)
Ceiling: 4700 feet AGL
Clouds: few clouds at 2300 feet AGL
scattered clouds at 3900 feet AGL
broken clouds at 4700 feet AGL
Weather: no significant weather observed at this time

METAR text: SOCA 260130Z AUTO 00000KT 9999 FEW018/// SCT098/// ///CB 25/24 Q1013 TEMPO 3000 SHRA
Conditions at: SOCA (CAYENNE/ROCHAMBE, GY) observed 0130 UTC 26 June 2019
Temperature: 25.0°C (77°F)
Dewpoint: 24.0°C (75°F) [RH = 94%]
Pressure (altimeter): 29.91 inches Hg (1013.0 mb)
Winds: calm
Visibility: 6 or more miles (10+ km)
Ceiling: at least 12,000 feet AGL
Clouds: few clouds at 1800 feet AGL
scattered clouds at 9800 feet AGL
Weather: no significant weather observed at this time

METAR text: SOCA 260100Z AUTO 00000KT 9999 BKN024/// BKN033/// ///CB 26/24 Q1013 TEMPO 3000 SHRA
Conditions at: SOCA (CAYENNE/ROCHAMBE, GY) observed 0100 UTC 26 June 2019
Temperature: 26.0°C (79°F)
Dewpoint: 24.0°C (75°F) [RH = 89%]
Pressure (altimeter): 29.91 inches Hg (1013.0 mb)
Winds: calm
Visibility: 6 or more miles (10+ km)
Ceiling: 2400 feet AGL
Clouds: broken clouds at 2400 feet AGL
broken clouds at 3300 feet AGL
Weather: no significant weather observed at this time

METAR text: SOCA 260030Z AUTO 17001KT 9999 ///CB 26/24 Q1013 TEMPO 3000 SHRA
Conditions at: SOCA (CAYENNE/ROCHAMBE, GY) observed 0030 UTC 26 June 2019
Temperature: 26.0°C (79°F)
Dewpoint: 24.0°C (75°F) [RH = 89%]
Pressure (altimeter): 29.91 inches Hg (1013.0 mb)
Winds: from the S (170 degrees) at 1 MPH (1 knots; 0.5 m/s)
Visibility: 6 or more miles (10+ km)
Ceiling: unknown
Clouds: missing
Weather: no significant weather observed at this time

METAR text: SOCA 260000Z AUTO 05004KT 9999 FEW019/// OVC180/// ///CB 26/25 Q1012 TEMPO 3000 SHRA
Conditions at: SOCA (CAYENNE/ROCHAMBE, GY) observed 0000 UTC 26 June 2019
Temperature: 26.0°C (79°F)
Dewpoint: 25.0°C (77°F) [RH = 94%]
Pressure (altimeter): 29.88 inches Hg (1012.0 mb)
Winds: from the NE (50 degrees) at 5 MPH (4 knots; 2.1 m/s)
Visibility: 6 or more miles (10+ km)
Ceiling: 18000 feet AGL
Clouds: few clouds at 1900 feet AGL
overcast cloud deck at 18000 feet AGL
Weather: no significant weather observed at this time

METAR text: SOCA 252330Z AUTO 21003KT 9999 ///TCU 26/25 Q1012 BECMG SCT026
Conditions at: SOCA (CAYENNE/ROCHAMBE, GY) observed 2330 UTC 25 June 2019
Temperature: 26.0°C (79°F)
Dewpoint: 25.0°C (77°F) [RH = 94%]
Pressure (altimeter): 29.88 inches Hg (1012.0 mb)
Winds: from the SSW (210 degrees) at 3 MPH (3 knots; 1.5 m/s)
Visibility: 6 or more miles (10+ km)
Ceiling: unknown
Clouds: missing
Weather: no significant weather observed at this time

METAR text: SOCA 252300Z AUTO 00000KT 9999 FEW023/// SCT110/// ///CB 26/25 Q1012 BECMG SCT026
Conditions at: SOCA (CAYENNE/ROCHAMBE, GY) observed 2300 UTC 25 June 2019
Temperature: 26.0°C (79°F)
Dewpoint: 25.0°C (77°F) [RH = 94%]
Pressure (altimeter): 29.88 inches Hg (1012.0 mb)
Winds: calm
Visibility: 6 or more miles (10+ km)
Ceiling: at least 12,000 feet AGL
Clouds: few clouds at 2300 feet AGL
scattered clouds at 11000 feet AGL
Weather: no significant weather observed at this time

METAR text: SOCA 252230Z AUTO 00000KT 9999 ///TCU 26/24 Q1011 BECMG SCT026
Conditions at: SOCA (CAYENNE/ROCHAMBE, GY) observed 2230 UTC 25 June 2019
Temperature: 26.0°C (79°F)
Dewpoint: 24.0°C (75°F) [RH = 89%]
Pressure (altimeter): 29.85 inches Hg (1011.0 mb)
Winds: calm
Visibility: 6 or more miles (10+ km)
Ceiling: unknown
Clouds: missing
Weather: no significant weather observed at this time

METAR text: SOCA 252200Z AUTO 00000KT CAVOK 26/24 Q1011 NOSIG
Conditions at: SOCA (CAYENNE/ROCHAMBE, GY) observed 2200 UTC 25 June 2019
Temperature: 26.0°C (79°F)
Dewpoint: 24.0°C (75°F) [RH = 89%]
Pressure (altimeter): 29.85 inches Hg (1011.0 mb)
Winds: calm
Visibility: 6 or more miles (10+ km)
Ceiling: ceiling and visibility are OK
Clouds: unknown
Weather: no significant weather observed at this time

METAR text: SOCA 252130Z AUTO VRB03KT 9999 FEW020 27/25 Q1011 NOSIG
Conditions at: SOCA (CAYENNE/ROCHAMBE, GY) observed 2130 UTC 25 June 2019
Temperature: 27.0°C (81°F)
Dewpoint: 25.0°C (77°F) [RH = 89%]
Pressure (altimeter): 29.85 inches Hg (1011.0 mb)
Winds: variable direction winds at 3 MPH (3 knots; 1.5 m/s)
Visibility: 6 or more miles (10+ km)
Ceiling: at least 12,000 feet AGL
Clouds: few clouds at 2000 feet AGL
Weather: no significant weather observed at this time

METAR text: SOCA 252100Z AUTO 02005KT 9999 SCT019 BKN025 BKN031 28/24 Q1010 NOSIG
Conditions at: SOCA (CAYENNE/ROCHAMBE, GY) observed 2100 UTC 25 June 2019
Temperature: 28.0°C (82°F)
Dewpoint: 24.0°C (75°F) [RH = 79%]
Pressure (altimeter): 29.82 inches Hg (1010.0 mb)
Winds: from the NNE (20 degrees) at 6 MPH (5 knots; 2.6 m/s)
Visibility: 6 or more miles (10+ km)
Ceiling: 2500 feet AGL
Clouds: scattered clouds at 1900 feet AGL
broken clouds at 2500 feet AGL
broken clouds at 3100 feet AGL
Weather: no significant weather observed at this time

METAR text: SOCA 252030Z AUTO 03006KT 9999 FEW019 SCT026 29/24 Q1010 NOSIG
Conditions at: SOCA (CAYENNE/ROCHAMBE, GY) observed 2030 UTC 25 June 2019
Temperature: 29.0°C (84°F)
Dewpoint: 24.0°C (75°F) [RH = 74%]
Pressure (altimeter): 29.82 inches Hg (1010.0 mb)
Winds: from the NNE (30 degrees) at 7 MPH (6 knots; 3.1 m/s)
Visibility: 6 or more miles (10+ km)
Ceiling: at least 12,000 feet AGL
Clouds: few clouds at 1900 feet AGL
scattered clouds at 2600 feet AGL
Weather: no significant weather observed at this time

METAR text: SOCA 252000Z AUTO 04007KT 350V060 9999 BKN021 BKN027 29/25 Q1010 TEMPO 1000 TSRA FEW012CB
Conditions at: SOCA (CAYENNE/ROCHAMBE, GY) observed 2000 UTC 25 June 2019
Temperature: 29.0°C (84°F)
Dewpoint: 25.0°C (77°F) [RH = 79%]
Pressure (altimeter): 29.82 inches Hg (1010.0 mb)
Winds: from the NE (40 degrees) at 8 MPH (7 knots; 3.6 m/s)
Visibility: 6 or more miles (10+ km)
Ceiling: 2100 feet AGL
Clouds: broken clouds at 2100 feet AGL
broken clouds at 2700 feet AGL
Weather: no significant weather observed at this time

METAR text: SOCA 251930Z AUTO 04007KT 9999 SCT019 29/25 Q1010 TEMPO 1000 TSRA FEW012CB
Conditions at: SOCA (CAYENNE/ROCHAMBE, GY) observed 1930 UTC 25 June 2019
Temperature: 29.0°C (84°F)
Dewpoint: 25.0°C (77°F) [RH = 79%]
Pressure (altimeter): 29.82 inches Hg (1010.0 mb)
Winds: from the NE (40 degrees) at 8 MPH (7 knots; 3.6 m/s)
Visibility: 6 or more miles (10+ km)
Ceiling: at least 12,000 feet AGL
Clouds: scattered clouds at 1900 feet AGL
Weather: no significant weather observed at this time

METAR text: SOCA 251900Z AUTO 04008KT 010V080 9999 BKN020 BKN025 29/24 Q1010 TEMPO 1000 TSRA FEW012CB
Conditions at: SOCA (CAYENNE/ROCHAMBE, GY) observed 1900 UTC 25 June 2019
Temperature: 29.0°C (84°F)
Dewpoint: 24.0°C (75°F) [RH = 74%]
Pressure (altimeter): 29.82 inches Hg (1010.0 mb)
Winds: from the NE (40 degrees) at 9 MPH (8 knots; 4.1 m/s)
Visibility: 6 or more miles (10+ km)
Ceiling: 2000 feet AGL
Clouds: broken clouds at 2000 feet AGL
broken clouds at 2500 feet AGL
Weather: no significant weather observed at this time

METAR text: SOCA 251830Z AUTO 06008KT 020V110 9999 FEW019 29/24 Q1010 TEMPO 1000 TSRA FEW012CB
Conditions at: SOCA (CAYENNE/ROCHAMBE, GY) observed 1830 UTC 25 June 2019
Temperature: 29.0°C (84°F)
Dewpoint: 24.0°C (75°F) [RH = 74%]
Pressure (altimeter): 29.82 inches Hg (1010.0 mb)
Winds: from the ENE (60 degrees) at 9 MPH (8 knots; 4.1 m/s)
Visibility: 6 or more miles (10+ km)
Ceiling: at least 12,000 feet AGL
Clouds: few clouds at 1900 feet AGL
Weather: no significant weather observed at this time

METAR text: SOCA 251800Z AUTO 02006KT 350V050 9999 FEW010 SCT015 28/24 Q1011 TEMPO 1000 TSRA FEW012CB
Conditions at: SOCA (CAYENNE/ROCHAMBE, GY) observed 1800 UTC 25 June 2019
Temperature: 28.0°C (82°F)
Dewpoint: 24.0°C (75°F) [RH = 79%]
Pressure (altimeter): 29.85 inches Hg (1011.0 mb)
Winds: from the NNE (20 degrees) at 7 MPH (6 knots; 3.1 m/s)
Visibility: 6 or more miles (10+ km)
Ceiling: at least 12,000 feet AGL
Clouds: few clouds at 1000 feet AGL
scattered clouds at 1500 feet AGL
Weather: no significant weather observed at this time

METAR text: SOCA 251730Z AUTO 01004KT 340V040 9999 SCT010 SCT190 27/25 Q1011 TEMPO 1000 TSRA FEW012CB
Conditions at: SOCA (CAYENNE/ROCHAMBE, GY) observed 1730 UTC 25 June 2019
Temperature: 27.0°C (81°F)
Dewpoint: 25.0°C (77°F) [RH = 89%]
Pressure (altimeter): 29.85 inches Hg (1011.0 mb)
Winds: from the N (10 degrees) at 5 MPH (4 knots; 2.1 m/s)
Visibility: 6 or more miles (10+ km)
Ceiling: at least 12,000 feet AGL
Clouds: scattered clouds at 1000 feet AGL
scattered clouds at 19000 feet AGL
Weather: no significant weather observed at this time

METAR text: SOCA 251700Z AUTO 01005KT 340V060 9999 FEW026 BKN170 BKN200 26/25 Q1011 TEMPO 1000 TSRA FEW012CB
Conditions at: SOCA (CAYENNE/ROCHAMBE, GY) observed 1700 UTC 25 June 2019
Temperature: 26.0°C (79°F)
Dewpoint: 25.0°C (77°F) [RH = 94%]
Pressure (altimeter): 29.85 inches Hg (1011.0 mb)
Winds: from the N (10 degrees) at 6 MPH (5 knots; 2.6 m/s)
Visibility: 6 or more miles (10+ km)
Ceiling: 17000 feet AGL
Clouds: few clouds at 2600 feet AGL
broken clouds at 17000 feet AGL
broken clouds at 20000 feet AGL
Weather: no significant weather observed at this time

METAR text: SOCA 251630Z AUTO 35005KT 320V060 9999 FEW016/// ///TCU 26/24 Q1012 TEMPO 1000 TSRA FEW012CB
Conditions at: SOCA (CAYENNE/ROCHAMBE, GY) observed 1630 UTC 25 June 2019
Temperature: 26.0°C (79°F)
Dewpoint: 24.0°C (75°F) [RH = 89%]
Pressure (altimeter): 29.88 inches Hg (1012.0 mb)
Winds: from the N (350 degrees) at 6 MPH (5 knots; 2.6 m/s)
Visibility: 6 or more miles (10+ km)
Ceiling: at least 12,000 feet AGL
Clouds: few clouds at 1600 feet AGL
Weather: no significant weather observed at this time

METAR text: SOCA 251600Z AUTO 36005KT 320V080 9999 FEW014/// BKN021/// BKN032/// ///TCU 27/25 Q1012 TEMPO 1000 TSRA FEW012CB
Conditions at: SOCA (CAYENNE/ROCHAMBE, GY) observed 1600 UTC 25 June 2019
Temperature: 27.0°C (81°F)
Dewpoint: 25.0°C (77°F) [RH = 89%]
Pressure (altimeter): 29.88 inches Hg (1012.0 mb)
Winds: from the N (360 degrees) at 6 MPH (5 knots; 2.6 m/s)
Visibility: 6 or more miles (10+ km)
Ceiling: 2100 feet AGL
Clouds: few clouds at 1400 feet AGL
broken clouds at 2100 feet AGL
broken clouds at 3200 feet AGL
Weather: no significant weather observed at this time

METAR text: SOCA 251530Z AUTO 02005KT 340V050 9999 -RA BKN020/// BKN029/// OVC035/// ///CB 28/25 Q1012 TEMPO 1000 TSRA
Conditions at: SOCA (CAYENNE/ROCHAMBE, GY) observed 1530 UTC 25 June 2019
Temperature: 28.0°C (82°F)
Dewpoint: 25.0°C (77°F) [RH = 84%]
Pressure (altimeter): 29.88 inches Hg (1012.0 mb)
Winds: from the NNE (20 degrees) at 6 MPH (5 knots; 2.6 m/s)
Visibility: 6 or more miles (10+ km)
Ceiling: 2000 feet AGL
Clouds: broken clouds at 2000 feet AGL
broken clouds at 2900 feet AGL
overcast cloud deck at 3500 feet AGL
Weather: -RA  (light rain)

METAR text: SOCA 251500Z AUTO VRB02KT 9999 FEW018/// SCT036/// BKN064/// ///TCU 29/26 Q1013 BECMG SCT026
Conditions at: SOCA (CAYENNE/ROCHAMBE, GY) observed 1500 UTC 25 June 2019
Temperature: 29.0°C (84°F)
Dewpoint: 26.0°C (79°F) [RH = 84%]
Pressure (altimeter): 29.91 inches Hg (1013.0 mb)
Winds: variable direction winds at 2 MPH (2 knots; 1.0 m/s)
Visibility: 6 or more miles (10+ km)
Ceiling: 6400 feet AGL
Clouds: few clouds at 1800 feet AGL
scattered clouds at 3600 feet AGL
broken clouds at 6400 feet AGL
Weather: no significant weather observed at this time

METAR text: SOCA 251430Z AUTO 00000KT 9999 FEW041/// BKN058/// BKN076/// ///TCU 27/25 Q1013 BECMG SCT026
Conditions at: SOCA (CAYENNE/ROCHAMBE, GY) observed 1430 UTC 25 June 2019
Temperature: 27.0°C (81°F)
Dewpoint: 25.0°C (77°F) [RH = 89%]
Pressure (altimeter): 29.91 inches Hg (1013.0 mb)
Winds: calm
Visibility: 6 or more miles (10+ km)
Ceiling: 5800 feet AGL
Clouds: few clouds at 4100 feet AGL
broken clouds at 5800 feet AGL
broken clouds at 7600 feet AGL
Weather: no significant weather observed at this time

METAR text: SOCA 251400Z AUTO 04001KT 9999 FEW028/// SCT033/// OVC052/// ///CB 25/24 Q1013 TEMPO 1000 TSRA BECMG SCT026
Conditions at: SOCA (CAYENNE/ROCHAMBE, GY) observed 1400 UTC 25 June 2019
Temperature: 25.0°C (77°F)
Dewpoint: 24.0°C (75°F) [RH = 94%]
Pressure (altimeter): 29.91 inches Hg (1013.0 mb)
Winds: from the NE (40 degrees) at 1 MPH (1 knots; 0.5 m/s)
Visibility: 6 or more miles (10+ km)
Ceiling: 5200 feet AGL
Clouds: few clouds at 2800 feet AGL
scattered clouds at 3300 feet AGL
overcast cloud deck at 5200 feet AGL
Weather: no significant weather observed at this time

METAR text: SOCA 251330Z AUTO 36004KT 320V060 7000 -RA FEW006/// BKN042/// OVC062/// ///CB 25/24 Q1013 TEMPO 1000 TSRA BECMG SCT026
Conditions at: SOCA (CAYENNE/ROCHAMBE, GY) observed 1330 UTC 25 June 2019
Temperature: 25.0°C (77°F)
Dewpoint: 24.0°C (75°F) [RH = 94%]
Pressure (altimeter): 29.91 inches Hg (1013.0 mb)
Winds: from the N (360 degrees) at 5 MPH (4 knots; 2.1 m/s)
Visibility: 4 miles ( 7 km)
Ceiling: 4200 feet AGL
Clouds: few clouds at 600 feet AGL
broken clouds at 4200 feet AGL
overcast cloud deck at 6200 feet AGL
Weather: -RA  (light rain)

METAR text: SOCA 251300Z AUTO 02005KT 330V070 9999 -RA VCTS FEW010/// SCT027/// BKN054/// ///CB 25/24 Q1013 TEMPO 1000 TSRA
Conditions at: SOCA (CAYENNE/ROCHAMBE, GY) observed 1300 UTC 25 June 2019
Temperature: 25.0°C (77°F)
Dewpoint: 24.0°C (75°F) [RH = 94%]
Pressure (altimeter): 29.91 inches Hg (1013.0 mb)
Winds: from the NNE (20 degrees) at 6 MPH (5 knots; 2.6 m/s)
Visibility: 6 or more miles (10+ km)
Ceiling: 5400 feet AGL
Clouds: few clouds at 1000 feet AGL
scattered clouds at 2700 feet AGL
broken clouds at 5400 feet AGL
Weather: -RA VCTS  (light rain, thunderstorm in vicinity)

METAR text: SOCA 251230Z AUTO VRB01KT 9999 FEW038/// BKN056/// ///CB 29/25 Q1013 TEMPO 1000 TSRA
Conditions at: SOCA (CAYENNE/ROCHAMBE, GY) observed 1230 UTC 25 June 2019
Temperature: 29.0°C (84°F)
Dewpoint: 25.0°C (77°F) [RH = 79%]
Pressure (altimeter): 29.91 inches Hg (1013.0 mb)
Winds: variable direction winds at 1 MPH (1 knots; 0.5 m/s)
Visibility: 6 or more miles (10+ km)
Ceiling: 5600 feet AGL
Clouds: few clouds at 3800 feet AGL
broken clouds at 5600 feet AGL
Weather: no significant weather observed at this time

METAR text: SOCA 251200Z AUTO 00000KT 9999 SCT023/// ///CB 28/24 Q1013 TEMPO 3000 SHRA
Conditions at: SOCA (CAYENNE/ROCHAMBE, GY) observed 1200 UTC 25 June 2019
Temperature: 28.0°C (82°F)
Dewpoint: 24.0°C (75°F) [RH = 79%]
Pressure (altimeter): 29.91 inches Hg (1013.0 mb)
Winds: calm
Visibility: 6 or more miles (10+ km)
Ceiling: at least 12,000 feet AGL
Clouds: scattered clouds at 2300 feet AGL
Weather: no significant weather observed at this time

METAR text: SOCA 251130Z AUTO VRB02KT 9999 FEW003 26/25 Q1012 TEMPO 3000 SHRA FEW015TCU
Conditions at: SOCA (CAYENNE/ROCHAMBE, GY) observed 1130 UTC 25 June 2019
Temperature: 26.0°C (79°F)
Dewpoint: 25.0°C (77°F) [RH = 94%]
Pressure (altimeter): 29.88 inches Hg (1012.0 mb)
Winds: variable direction winds at 2 MPH (2 knots; 1.0 m/s)
Visibility: 6 or more miles (10+ km)
Ceiling: at least 12,000 feet AGL
Clouds: few clouds at 300 feet AGL
Weather: no significant weather observed at this time

METAR text: SOCA 251100Z AUTO 00000KT 9999 SCT002 BKN078 25/24 Q1012 TEMPO SHRA FEW012TCU
Conditions at: SOCA (CAYENNE/ROCHAMBE, GY) observed 1100 UTC 25 June 2019
Temperature: 25.0°C (77°F)
Dewpoint: 24.0°C (75°F) [RH = 94%]
Pressure (altimeter): 29.88 inches Hg (1012.0 mb)
Winds: calm
Visibility: 6 or more miles (10+ km)
Ceiling: 7800 feet AGL
Clouds: scattered clouds at 200 feet AGL
broken clouds at 7800 feet AGL
Weather: no significant weather observed at this time

METAR text: SOCA 251030Z AUTO 00000KT 9999 VV/// 25/24 Q1012 TEMPO SHRA FEW012TCU
Conditions at: SOCA (CAYENNE/ROCHAMBE, GY) observed 1030 UTC 25 June 2019
Temperature: 25.0°C (77°F)
Dewpoint: 24.0°C (75°F) [RH = 94%]
Pressure (altimeter): 29.88 inches Hg (1012.0 mb)
Winds: calm
Visibility: 6 or more miles (10+ km)
Ceiling: indefinite ceiling with vertical visibility of 0 feet AGL
Clouds: obscured sky
Weather: no significant weather observed at this time

METAR text: SOCA 251000Z AUTO 00000KT 1500 R08/1400U BR VV/// 24/23 Q1011 TEMPO FEW012TCU BECMG 9999 NSW
Conditions at: SOCA (CAYENNE/ROCHAMBE, GY) observed 1000 UTC 25 June 2019
Temperature: 24.0°C (75°F)
Dewpoint: 23.0°C (73°F) [RH = 94%]
Pressure (altimeter): 29.85 inches Hg (1011.0 mb)
Winds: calm
Visibility: 0.93 miles (1.50 km)
Ceiling: indefinite ceiling with vertical visibility of 0 feet AGL
Clouds: obscured sky
Weather: BR  (mist)

METAR text: SOCA 250930Z AUTO 00000KT 9000 BKN001 BKN050 BKN070 24/23 Q1011 TEMPO 1200 BCFG FEW012TCU
Conditions at: SOCA (CAYENNE/ROCHAMBE, GY) observed 0930 UTC 25 June 2019
Temperature: 24.0°C (75°F)
Dewpoint: 23.0°C (73°F) [RH = 94%]
Pressure (altimeter): 29.85 inches Hg (1011.0 mb)
Winds: calm
Visibility: 6 miles ( 9 km)
Ceiling: 100 feet AGL
Clouds: broken clouds at 100 feet AGL
broken clouds at 5000 feet AGL
broken clouds at 7000 feet AGL
Weather: no significant weather observed at this time

METAR text: SOCA 250900Z AUTO 00000KT 9999 FEW002 BKN072 BKN170 24/24 Q1011 TEMPO 1200 BCFG FEW012TCU
Conditions at: SOCA (CAYENNE/ROCHAMBE, GY) observed 0900 UTC 25 June 2019
Temperature: 24.0°C (75°F)
Dewpoint: 24.0°C (75°F) [RH = 100%]
Pressure (altimeter): 29.85 inches Hg (1011.0 mb)
Winds: calm
Visibility: 6 or more miles (10+ km)
Ceiling: 7200 feet AGL
Clouds: few clouds at 200 feet AGL
broken clouds at 7200 feet AGL
broken clouds at 17000 feet AGL
Weather: no significant weather observed at this time

METAR text: SOCA 250830Z AUTO 00000KT 9999 SCT002 BKN070 OVC170 24/23 Q1011 TEMPO 1200 BCFG FEW012TCU
Conditions at: SOCA (CAYENNE/ROCHAMBE, GY) observed 0830 UTC 25 June 2019
Temperature: 24.0°C (75°F)
Dewpoint: 23.0°C (73°F) [RH = 94%]
Pressure (altimeter): 29.85 inches Hg (1011.0 mb)
Winds: calm
Visibility: 6 or more miles (10+ km)
Ceiling: 7000 feet AGL
Clouds: scattered clouds at 200 feet AGL
broken clouds at 7000 feet AGL
overcast cloud deck at 17000 feet AGL
Weather: no significant weather observed at this time

METAR text: SOCA 250800Z AUTO 00000KT CAVOK 24/24 Q1011 TEMPO 1200 BCFG FEW012TCU
Conditions at: SOCA (CAYENNE/ROCHAMBE, GY) observed 0800 UTC 25 June 2019
Temperature: 24.0°C (75°F)
Dewpoint: 24.0°C (75°F) [RH = 100%]
Pressure (altimeter): 29.85 inches Hg (1011.0 mb)
Winds: calm
Visibility: 6 or more miles (10+ km)
Ceiling: ceiling and visibility are OK
Clouds: unknown
Weather: no significant weather observed at this time

METAR text: SOCA 250730Z AUTO 00000KT 9999 SCT021 BKN030 BKN040 24/24 Q1011 TEMPO 1200 BCFG FEW012TCU
Conditions at: SOCA (CAYENNE/ROCHAMBE, GY) observed 0730 UTC 25 June 2019
Temperature: 24.0°C (75°F)
Dewpoint: 24.0°C (75°F) [RH = 100%]
Pressure (altimeter): 29.85 inches Hg (1011.0 mb)
Winds: calm
Visibility: 6 or more miles (10+ km)
Ceiling: 3000 feet AGL
Clouds: scattered clouds at 2100 feet AGL
broken clouds at 3000 feet AGL
broken clouds at 4000 feet AGL
Weather: no significant weather observed at this time

METAR text: SOCA 250700Z AUTO 00000KT 9999 SCT001 SCT024 BKN056 24/24 Q1011 TEMPO 1200 BCFG FEW012TCU
Conditions at: SOCA (CAYENNE/ROCHAMBE, GY) observed 0700 UTC 25 June 2019
Temperature: 24.0°C (75°F)
Dewpoint: 24.0°C (75°F) [RH = 100%]
Pressure (altimeter): 29.85 inches Hg (1011.0 mb)
Winds: calm
Visibility: 6 or more miles (10+ km)
Ceiling: 5600 feet AGL
Clouds: scattered clouds at 100 feet AGL
scattered clouds at 2400 feet AGL
broken clouds at 5600 feet AGL
Weather: no significant weather observed at this time

METAR text: SOCA 250630Z AUTO 00000KT 9999 SCT001 BKN180 24/24 Q1011 TEMPO 1200 BCFG FEW012TCU
Conditions at: SOCA (CAYENNE/ROCHAMBE, GY) observed 0630 UTC 25 June 2019
Temperature: 24.0°C (75°F)
Dewpoint: 24.0°C (75°F) [RH = 100%]
Pressure (altimeter): 29.85 inches Hg (1011.0 mb)
Winds: calm
Visibility: 6 or more miles (10+ km)
Ceiling: 18000 feet AGL
Clouds: scattered clouds at 100 feet AGL
broken clouds at 18000 feet AGL
Weather: no significant weather observed at this time

METAR text: SOCA 250600Z AUTO 21001KT 9999 FEW036 BKN180 24/24 Q1011 TEMPO 1200 BCFG FEW012TCU
Conditions at: SOCA (CAYENNE/ROCHAMBE, GY) observed 0600 UTC 25 June 2019
Temperature: 24.0°C (75°F)
Dewpoint: 24.0°C (75°F) [RH = 100%]
Pressure (altimeter): 29.85 inches Hg (1011.0 mb)
Winds: from the SSW (210 degrees) at 1 MPH (1 knots; 0.5 m/s)
Visibility: 6 or more miles (10+ km)
Ceiling: 18000 feet AGL
Clouds: few clouds at 3600 feet AGL
broken clouds at 18000 feet AGL
Weather: no significant weather observed at this time

METAR text: SOCA 250530Z AUTO 00000KT 9999 FEW020/// SCT033/// BKN058/// ///CB 24/24 Q1012 TEMPO 1200 BCFG BKN001
Conditions at: SOCA (CAYENNE/ROCHAMBE, GY) observed 0530 UTC 25 June 2019
Temperature: 24.0°C (75°F)
Dewpoint: 24.0°C (75°F) [RH = 100%]
Pressure (altimeter): 29.88 inches Hg (1012.0 mb)
Winds: calm
Visibility: 6 or more miles (10+ km)
Ceiling: 5800 feet AGL
Clouds: few clouds at 2000 feet AGL
scattered clouds at 3300 feet AGL
broken clouds at 5800 feet AGL
Weather: no significant weather observed at this time

METAR text: SOCA 250500Z AUTO 15002KT 9999 FEW014/// BKN038/// BKN052/// ///CB 25/24 Q1012 TEMPO SHRA
Conditions at: SOCA (CAYENNE/ROCHAMBE, GY) observed 0500 UTC 25 June 2019
Temperature: 25.0°C (77°F)
Dewpoint: 24.0°C (75°F) [RH = 94%]
Pressure (altimeter): 29.88 inches Hg (1012.0 mb)
Winds: from the SSE (150 degrees) at 2 MPH (2 knots; 1.0 m/s)
Visibility: 6 or more miles (10+ km)
Ceiling: 3800 feet AGL
Clouds: few clouds at 1400 feet AGL
broken clouds at 3800 feet AGL
broken clouds at 5200 feet AGL
Weather: no significant weather observed at this time

METAR text: SOCA 250430Z AUTO 00000KT 2600 +RA BR FEW014/// SCT019/// BKN029/// ///TCU 25/24 Q1012 BECMG 9999 NSW
Conditions at: SOCA (CAYENNE/ROCHAMBE, GY) observed 0430 UTC 25 June 2019
Temperature: 25.0°C (77°F)
Dewpoint: 24.0°C (75°F) [RH = 94%]
Pressure (altimeter): 29.88 inches Hg (1012.0 mb)
Winds: calm
Visibility: 1.62 miles (2.61 km)
Ceiling: 2900 feet AGL
Clouds: few clouds at 1400 feet AGL
scattered clouds at 1900 feet AGL
broken clouds at 2900 feet AGL
Weather: +RA BR  (heavy rain, mist)

METAR text: SOCA 250400Z AUTO 00000KT 9999 BKN020/// BKN062/// ///CB 24/24 Q1013 TEMPO SHRA
Conditions at: SOCA (CAYENNE/ROCHAMBE, GY) observed 0400 UTC 25 June 2019
Temperature: 24.0°C (75°F)
Dewpoint: 24.0°C (75°F) [RH = 100%]
Pressure (altimeter): 29.91 inches Hg (1013.0 mb)
Winds: calm
Visibility: 6 or more miles (10+ km)
Ceiling: 2000 feet AGL
Clouds: broken clouds at 2000 feet AGL
broken clouds at 6200 feet AGL
Weather: no significant weather observed at this time

METAR text: SOCA 250330Z AUTO 00000KT 9999 BKN019/// BKN024/// BKN047/// ///CB 24/24 Q1013 TEMPO SHRA
Conditions at: SOCA (CAYENNE/ROCHAMBE, GY) observed 0330 UTC 25 June 2019
Temperature: 24.0°C (75°F)
Dewpoint: 24.0°C (75°F) [RH = 100%]
Pressure (altimeter): 29.91 inches Hg (1013.0 mb)
Winds: calm
Visibility: 6 or more miles (10+ km)
Ceiling: 1900 feet AGL
Clouds: broken clouds at 1900 feet AGL
broken clouds at 2400 feet AGL
broken clouds at 4700 feet AGL
Weather: no significant weather observed at this time

METAR text: SOCA 250300Z AUTO 00000KT 9999 BKN048 BKN088 25/24 Q1013 TEMPO SHRA FEW012TCU
Conditions at: SOCA (CAYENNE/ROCHAMBE, GY) observed 0300 UTC 25 June 2019
Temperature: 25.0°C (77°F)
Dewpoint: 24.0°C (75°F) [RH = 94%]
Pressure (altimeter): 29.91 inches Hg (1013.0 mb)
Winds: calm
Visibility: 6 or more miles (10+ km)
Ceiling: 4800 feet AGL
Clouds: broken clouds at 4800 feet AGL
broken clouds at 8800 feet AGL
Weather: no significant weather observed at this time

METAR text: SOCA 250230Z AUTO 23002KT 9999 FEW025 BKN088 24/24 Q1013 TEMPO SHRA FEW012TCU
Conditions at: SOCA (CAYENNE/ROCHAMBE, GY) observed 0230 UTC 25 June 2019
Temperature: 24.0°C (75°F)
Dewpoint: 24.0°C (75°F) [RH = 100%]
Pressure (altimeter): 29.91 inches Hg (1013.0 mb)
Winds: from the SW (230 degrees) at 2 MPH (2 knots; 1.0 m/s)
Visibility: 6 or more miles (10+ km)
Ceiling: 8800 feet AGL
Clouds: few clouds at 2500 feet AGL
broken clouds at 8800 feet AGL
Weather: no significant weather observed at this time

METAR text: SOCA 250200Z AUTO 00000KT CAVOK 25/24 Q1013 TEMPO SHRA FEW012TCU
Conditions at: SOCA (CAYENNE/ROCHAMBE, GY) observed 0200 UTC 25 June 2019
Temperature: 25.0°C (77°F)
Dewpoint: 24.0°C (75°F) [RH = 94%]
Pressure (altimeter): 29.91 inches Hg (1013.0 mb)
Winds: calm
Visibility: 6 or more miles (10+ km)
Ceiling: ceiling and visibility are OK
Clouds: unknown
Weather: no significant weather observed at this time

METAR text: SOCA 250130Z AUTO 04002KT 9999 FEW028/// BKN044/// BKN062/// ///TCU 25/24 Q1013 TEMPO SHRA
Conditions at: SOCA (CAYENNE/ROCHAMBE, GY) observed 0130 UTC 25 June 2019
Temperature: 25.0°C (77°F)
Dewpoint: 24.0°C (75°F) [RH = 94%]
Pressure (altimeter): 29.91 inches Hg (1013.0 mb)
Winds: from the NE (40 degrees) at 2 MPH (2 knots; 1.0 m/s)
Visibility: 6 or more miles (10+ km)
Ceiling: 4400 feet AGL
Clouds: few clouds at 2800 feet AGL
broken clouds at 4400 feet AGL
broken clouds at 6200 feet AGL
Weather: no significant weather observed at this time

METAR text: SOCA 250100Z AUTO 03007KT 8000 -RA FEW024/// SCT032/// OVC060/// ///TCU 25/24 Q1013 TEMPO SHRA
Conditions at: SOCA (CAYENNE/ROCHAMBE, GY) observed 0100 UTC 25 June 2019
Temperature: 25.0°C (77°F)
Dewpoint: 24.0°C (75°F) [RH = 94%]
Pressure (altimeter): 29.91 inches Hg (1013.0 mb)
Winds: from the NNE (30 degrees) at 8 MPH (7 knots; 3.6 m/s)
Visibility: 5 miles ( 8 km)
Ceiling: 6000 feet AGL
Clouds: few clouds at 2400 feet AGL
scattered clouds at 3200 feet AGL
overcast cloud deck at 6000 feet AGL
Weather: -RA  (light rain)

METAR text: SOCA 250030Z AUTO 23001KT 9999 FEW033/// BKN064/// ///CB 25/24 Q1013 TEMPO SHRA
Conditions at: SOCA (CAYENNE/ROCHAMBE, GY) observed 0030 UTC 25 June 2019
Temperature: 25.0°C (77°F)
Dewpoint: 24.0°C (75°F) [RH = 94%]
Pressure (altimeter): 29.91 inches Hg (1013.0 mb)
Winds: from the SW (230 degrees) at 1 MPH (1 knots; 0.5 m/s)
Visibility: 6 or more miles (10+ km)
Ceiling: 6400 feet AGL
Clouds: few clouds at 3300 feet AGL
broken clouds at 6400 feet AGL
Weather: no significant weather observed at this time

METAR text: SOCA 250000Z AUTO 00000KT CAVOK 26/24 Q1012 TEMPO SHRA FEW012TCU
Conditions at: SOCA (CAYENNE/ROCHAMBE, GY) observed 0000 UTC 25 June 2019
Temperature: 26.0°C (79°F)
Dewpoint: 24.0°C (75°F) [RH = 89%]
Pressure (altimeter): 29.88 inches Hg (1012.0 mb)
Winds: calm
Visibility: 6 or more miles (10+ km)
Ceiling: ceiling and visibility are OK
Clouds: unknown
Weather: no significant weather observed at this time

METAR text: SOCA 242330Z AUTO 00000KT CAVOK 26/24 Q1012 TEMPO SHRA FEW012TCU
Conditions at: SOCA (CAYENNE/ROCHAMBE, GY) observed 2330 UTC 24 June 2019
Temperature: 26.0°C (79°F)
Dewpoint: 24.0°C (75°F) [RH = 89%]
Pressure (altimeter): 29.88 inches Hg (1012.0 mb)
Winds: calm
Visibility: 6 or more miles (10+ km)
Ceiling: ceiling and visibility are OK
Clouds: unknown
Weather: no significant weather observed at this time

METAR text: SOCA 242300Z AUTO 09002KT CAVOK 27/24 Q1012 TEMPO 3000 SHRA SCT015TCU
Conditions at: SOCA (CAYENNE/ROCHAMBE, GY) observed 2300 UTC 24 June 2019
Temperature: 27.0°C (81°F)
Dewpoint: 24.0°C (75°F) [RH = 84%]
Pressure (altimeter): 29.88 inches Hg (1012.0 mb)
Winds: from the E (90 degrees) at 2 MPH (2 knots; 1.0 m/s)
Visibility: 6 or more miles (10+ km)
Ceiling: ceiling and visibility are OK
Clouds: unknown
Weather: no significant weather observed at this time

METAR text: SOCA 242230Z AUTO 08004KT CAVOK 27/23 Q1011 TEMPO 3000 SHRA SCT015TCU
Conditions at: SOCA (CAYENNE/ROCHAMBE, GY) observed 2230 UTC 24 June 2019
Temperature: 27.0°C (81°F)
Dewpoint: 23.0°C (73°F) [RH = 79%]
Pressure (altimeter): 29.85 inches Hg (1011.0 mb)
Winds: from the E (80 degrees) at 5 MPH (4 knots; 2.1 m/s)
Visibility: 6 or more miles (10+ km)
Ceiling: ceiling and visibility are OK
Clouds: unknown
Weather: no significant weather observed at this time

METAR text: SOCA 242200Z AUTO 08004KT CAVOK 28/23 Q1011 TEMPO 3000 SHRA SCT015TCU
Conditions at: SOCA (CAYENNE/ROCHAMBE, GY) observed 2200 UTC 24 June 2019
Temperature: 28.0°C (82°F)
Dewpoint: 23.0°C (73°F) [RH = 74%]
Pressure (altimeter): 29.85 inches Hg (1011.0 mb)
Winds: from the E (80 degrees) at 5 MPH (4 knots; 2.1 m/s)
Visibility: 6 or more miles (10+ km)
Ceiling: ceiling and visibility are OK
Clouds: unknown
Weather: no significant weather observed at this time

METAR text: SOCA 242130Z AUTO 08004KT CAVOK 28/23 Q1011 TEMPO 3000 SHRA SCT015TCU
Conditions at: SOCA (CAYENNE/ROCHAMBE, GY) observed 2130 UTC 24 June 2019
Temperature: 28.0°C (82°F)
Dewpoint: 23.0°C (73°F) [RH = 74%]
Pressure (altimeter): 29.85 inches Hg (1011.0 mb)
Winds: from the E (80 degrees) at 5 MPH (4 knots; 2.1 m/s)
Visibility: 6 or more miles (10+ km)
Ceiling: ceiling and visibility are OK
Clouds: unknown
Weather: no significant weather observed at this time

METAR text: SOCA 242100Z AUTO 08007KT 9999 SCT024 29/24 Q1010 TEMPO 3000 SHRA SCT015TCU
Conditions at: SOCA (CAYENNE/ROCHAMBE, GY) observed 2100 UTC 24 June 2019
Temperature: 29.0°C (84°F)
Dewpoint: 24.0°C (75°F) [RH = 74%]
Pressure (altimeter): 29.82 inches Hg (1010.0 mb)
Winds: from the E (80 degrees) at 8 MPH (7 knots; 3.6 m/s)
Visibility: 6 or more miles (10+ km)
Ceiling: at least 12,000 feet AGL
Clouds: scattered clouds at 2400 feet AGL
Weather: no significant weather observed at this time

METAR text: SOCA 242030Z AUTO 05010KT 9999 SCT024 30/24 Q1010 TEMPO 3000 SHRA SCT015TCU
Conditions at: SOCA (CAYENNE/ROCHAMBE, GY) observed 2030 UTC 24 June 2019
Temperature: 30.0°C (86°F)
Dewpoint: 24.0°C (75°F) [RH = 70%]
Pressure (altimeter): 29.82 inches Hg (1010.0 mb)
Winds: from the NE (50 degrees) at 12 MPH (10 knots; 5.1 m/s)
Visibility: 6 or more miles (10+ km)
Ceiling: at least 12,000 feet AGL
Clouds: scattered clouds at 2400 feet AGL
Weather: no significant weather observed at this time

METAR text: SOCA 242000Z AUTO 07009KT CAVOK 30/24 Q1010 TEMPO 3000 SHRA SCT015TCU
Conditions at: SOCA (CAYENNE/ROCHAMBE, GY) observed 2000 UTC 24 June 2019
Temperature: 30.0°C (86°F)
Dewpoint: 24.0°C (75°F) [RH = 70%]
Pressure (altimeter): 29.82 inches Hg (1010.0 mb)
Winds: from the ENE (70 degrees) at 10 MPH (9 knots; 4.6 m/s)
Visibility: 6 or more miles (10+ km)
Ceiling: ceiling and visibility are OK
Clouds: unknown
Weather: no significant weather observed at this time

METAR text: SOCA 241930Z AUTO 06013KT 9999 FEW029 30/24 Q1010 TEMPO 3000 SHRA SCT015TCU
Conditions at: SOCA (CAYENNE/ROCHAMBE, GY) observed 1930 UTC 24 June 2019
Temperature: 30.0°C (86°F)
Dewpoint: 24.0°C (75°F) [RH = 70%]
Pressure (altimeter): 29.82 inches Hg (1010.0 mb)
Winds: from the ENE (60 degrees) at 15 MPH (13 knots; 6.7 m/s)
Visibility: 6 or more miles (10+ km)
Ceiling: at least 12,000 feet AGL
Clouds: few clouds at 2900 feet AGL
Weather: no significant weather observed at this time

METAR text: SOCA 241900Z AUTO 05012KT 9999 FEW027/// ///CB 31/24 Q1010 TEMPO 1000 TSRA BKN012CB
Conditions at: SOCA (CAYENNE/ROCHAMBE, GY) observed 1900 UTC 24 June 2019
Temperature: 31.0°C (88°F)
Dewpoint: 24.0°C (75°F) [RH = 66%]
Pressure (altimeter): 29.82 inches Hg (1010.0 mb)
Winds: from the NE (50 degrees) at 14 MPH (12 knots; 6.2 m/s)
Visibility: 6 or more miles (10+ km)
Ceiling: at least 12,000 feet AGL
Clouds: few clouds at 2700 feet AGL
Weather: no significant weather observed at this time

METAR text: SOCA 241830Z AUTO 06012KT 9999 FEW032/// ///TCU 31/24 Q1010 TEMPO 1000 TSRA BKN012CB
Conditions at: SOCA (CAYENNE/ROCHAMBE, GY) observed 1830 UTC 24 June 2019
Temperature: 31.0°C (88°F)
Dewpoint: 24.0°C (75°F) [RH = 66%]
Pressure (altimeter): 29.82 inches Hg (1010.0 mb)
Winds: from the ENE (60 degrees) at 14 MPH (12 knots; 6.2 m/s)
Visibility: 6 or more miles (10+ km)
Ceiling: at least 12,000 feet AGL
Clouds: few clouds at 3200 feet AGL
Weather: no significant weather observed at this time

METAR text: SOCA 241800Z AUTO 06012KT 9999 FEW034/// ///TCU 31/24 Q1011 TEMPO 1000 TSRA BKN012CB
Conditions at: SOCA (CAYENNE/ROCHAMBE, GY) observed 1800 UTC 24 June 2019
Temperature: 31.0°C (88°F)
Dewpoint: 24.0°C (75°F) [RH = 66%]
Pressure (altimeter): 29.85 inches Hg (1011.0 mb)
Winds: from the ENE (60 degrees) at 14 MPH (12 knots; 6.2 m/s)
Visibility: 6 or more miles (10+ km)
Ceiling: at least 12,000 feet AGL
Clouds: few clouds at 3400 feet AGL
Weather: no significant weather observed at this time

METAR text: SOCA 241730Z AUTO 06010KT 020V080 9999 FEW031 SCT039 31/24 Q1011 TEMPO 3000 SHRA SCT015TCU
Conditions at: SOCA (CAYENNE/ROCHAMBE, GY) observed 1730 UTC 24 June 2019
Temperature: 31.0°C (88°F)
Dewpoint: 24.0°C (75°F) [RH = 66%]
Pressure (altimeter): 29.85 inches Hg (1011.0 mb)
Winds: from the ENE (60 degrees) at 12 MPH (10 knots; 5.1 m/s)
Visibility: 6 or more miles (10+ km)
Ceiling: at least 12,000 feet AGL
Clouds: few clouds at 3100 feet AGL
scattered clouds at 3900 feet AGL
Weather: no significant weather observed at this time

METAR text: SOCA 241700Z AUTO 07009KT 6000 FEW033 BKN043 BKN054 31/24 Q1011 TEMPO 3000 SHRA SCT015TCU
Conditions at: SOCA (CAYENNE/ROCHAMBE, GY) observed 1700 UTC 24 June 2019
Temperature: 31.0°C (88°F)
Dewpoint: 24.0°C (75°F) [RH = 66%]
Pressure (altimeter): 29.85 inches Hg (1011.0 mb)
Winds: from the ENE (70 degrees) at 10 MPH (9 knots; 4.6 m/s)
Visibility: 4 miles ( 6 km)
Ceiling: 4300 feet AGL
Clouds: few clouds at 3300 feet AGL
broken clouds at 4300 feet AGL
broken clouds at 5400 feet AGL
Weather: no significant weather observed at this time

METAR text: SOCA 241630Z AUTO 08008KT 050V130 5000 HZ FEW001/// ///CB 31/24 Q1012 TEMPO 1000 TSRA BKN012CB
Conditions at: SOCA (CAYENNE/ROCHAMBE, GY) observed 1630 UTC 24 June 2019
Temperature: 31.0°C (88°F)
Dewpoint: 24.0°C (75°F) [RH = 66%]
Pressure (altimeter): 29.88 inches Hg (1012.0 mb)
Winds: from the E (80 degrees) at 9 MPH (8 knots; 4.1 m/s)
Visibility: 3 miles ( 5 km)
Ceiling: at least 12,000 feet AGL
Clouds: few clouds at 100 feet AGL
Weather: HZ  (haze)

METAR text: SOCA 241600Z AUTO 09006KT 050V150 3700 BR FEW023/// SCT052/// ///CB 29/24 Q1012 TEMPO 1000 TSRA BKN012CB
Conditions at: SOCA (CAYENNE/ROCHAMBE, GY) observed 1600 UTC 24 June 2019
Temperature: 29.0°C (84°F)
Dewpoint: 24.0°C (75°F) [RH = 74%]
Pressure (altimeter): 29.88 inches Hg (1012.0 mb)
Winds: from the E (90 degrees) at 7 MPH (6 knots; 3.1 m/s)
Visibility: 2.30 miles (3.70 km)
Ceiling: at least 12,000 feet AGL
Clouds: few clouds at 2300 feet AGL
scattered clouds at 5200 feet AGL
Weather: BR  (mist)

Forecast for: AMD
Text: TAF AMD SOCA 260134Z 2601/2624 08005KT 9999 SCT020TCU BKN030
Forecast period: 0100 UTC 26 June 2019 to 0000 UTC 27 June 2019
Forecast type: FROM: standard forecast or significant change
Winds: from the E (80 degrees) at 6 MPH (5 knots; 2.6 m/s)
Visibility: 6 or more miles 10+ km)
Ceiling: 3000 feet AGL
Clouds: scattered clouds at 2000 feet AGL
broken clouds at 3000 feet AGL
Weather: no significant weather forecast for this period
Text: TEMPO 2601/2624 3000 SHRA FEW015CB
Forecast period: 0100 UTC 26 June 2019 to 0000 UTC 27 June 2019
Forecast type: TEMPORARY: The following changes expected for less than half the time period
Visibility: 1.86 miles (2.99 km)
Ceiling: at least 12,000 feet AGL
Clouds: few clouds at 1500 feet AGL
Weather: SHRA  (rain showers)
Text: PROB30
Forecast period: 1200 to 2100 UTC 26 June 2019
Forecast type: TEMPORARY: The following changes expected for less than half the time period
Visibility: 0.62 miles (1.00 km)
Ceiling: at least 12,000 feet AGL
Clouds: scattered clouds at 1200 feet AGL
Weather: TSRA  (rain associated with thunderstorm(s))